sensor_id;sensor_type;location;lat;lon;timestamp;noise_LAeq;noise_LA_min;noise_LA_max;noise_LA01;noise_LA95
52872;Laerm;40124;52.198;9.902;2023-05-03T00:00:24;51.56;39.70;65.70;;
52872;Laerm;40124;52.198;9.902;2023-05-03T00:02:50;43.13;39.34;47.18;;
52872;Laerm;40124;52.198;9.902;2023-05-03T00:05:18;41.61;38.05;46.43;;
52872;Laerm;40124;52.198;9.902;2023-05-03T00:07:43;41.58;37.88;44.87;;
52872;Laerm;40124;52.198;9.902;2023-05-03T00:10:09;42.50;38.95;46.38;;
52872;Laerm;40124;52.198;9.902;2023-05-03T00:12:40;53.77;39.34;71.95;;
52872;Laerm;40124;52.198;9.902;2023-05-03T00:15:06;62.76;39.81;84.09;;
52872;Laerm;40124;52.198;9.902;2023-05-03T00:17:31;42.76;40.33;45.27;;
52872;Laerm;40124;52.198;9.902;2023-05-03T00:19:56;42.32;38.37;44.19;;
52872;Laerm;40124;52.198;9.902;2023-05-03T00:22:22;41.25;37.52;44.19;;
52872;Laerm;40124;52.198;9.902;2023-05-03T00:24:47;42.39;38.37;44.54;;
52872;Laerm;40124;52.198;9.902;2023-05-03T00:27:13;42.43;39.46;46.02;;
52872;Laerm;40124;52.198;9.902;2023-05-03T00:29:38;42.36;39.21;45.14;;
52872;Laerm;40124;52.198;9.902;2023-05-03T00:32:03;42.55;39.34;47.08;;
52872;Laerm;40124;52.198;9.902;2023-05-03T00:34:29;58.07;39.58;80.06;;
52872;Laerm;40124;52.198;9.902;2023-05-03T00:36:54;42.02;39.34;44.76;;
52872;Laerm;40124;52.198;9.902;2023-05-03T00:39:19;42.61;39.46;45.39;;
52872;Laerm;40124;52.198;9.902;2023-05-03T00:41:44;52.21;38.52;70.38;;
52872;Laerm;40124;52.198;9.902;2023-05-03T00:44:09;42.45;38.81;46.13;;
52872;Laerm;40124;52.198;9.902;2023-05-03T00:46:34;58.14;39.81;76.18;;
52872;Laerm;40124;52.198;9.902;2023-05-03T00:48:59;63.29;38.21;83.50;;
52872;Laerm;40124;52.198;9.902;2023-05-03T00:51:25;43.02;39.46;45.94;;
52872;Laerm;40124;52.198;9.902;2023-05-03T00:53:51;43.34;40.62;45.77;;
52872;Laerm;40124;52.198;9.902;2023-05-03T00:56:17;43.23;40.43;45.45;;
52872;Laerm;40124;52.198;9.902;2023-05-03T00:58:44;59.10;40.23;80.43;;
52872;Laerm;40124;52.198;9.902;2023-05-03T01:01:10;42.27;39.34;46.69;;
52872;Laerm;40124;52.198;9.902;2023-05-03T01:03:35;42.50;39.21;50.45;;
52872;Laerm;40124;52.198;9.902;2023-05-03T01:08:53;42.45;39.46;46.66;;
52872;Laerm;40124;52.198;9.902;2023-05-03T01:11:22;42.82;39.81;48.98;;
52872;Laerm;40124;52.198;9.902;2023-05-03T01:13:56;42.57;39.46;49.36;;
52872;Laerm;40124;52.198;9.902;2023-05-03T01:18:53;56.13;39.70;76.18;;
52872;Laerm;40124;52.198;9.902;2023-05-03T01:21:19;42.23;38.52;49.51;;
52872;Laerm;40124;52.198;9.902;2023-05-03T01:23:51;56.26;39.08;75.41;;
52872;Laerm;40124;52.198;9.902;2023-05-03T01:26:22;63.99;40.98;82.30;;
52872;Laerm;40124;52.198;9.902;2023-05-03T01:28:47;56.65;40.13;78.21;;
52872;Laerm;40124;52.198;9.902;2023-05-03T01:31:17;59.16;40.43;79.19;;
52872;Laerm;40124;52.198;9.902;2023-05-03T01:33:43;57.14;39.92;77.60;;
52872;Laerm;40124;52.198;9.902;2023-05-03T01:36:12;61.19;39.34;81.24;;
52872;Laerm;40124;52.198;9.902;2023-05-03T01:38:40;43.02;38.95;47.83;;
52872;Laerm;40124;52.198;9.902;2023-05-03T01:41:08;49.33;40.13;61.18;;
52872;Laerm;40124;52.198;9.902;2023-05-03T01:43:34;42.86;39.92;45.14;;
52872;Laerm;40124;52.198;9.902;2023-05-03T01:46:00;42.89;39.46;47.77;;
52872;Laerm;40124;52.198;9.902;2023-05-03T01:48:25;49.15;40.13;70.65;;
52872;Laerm;40124;52.198;9.902;2023-05-03T01:50:50;59.89;39.81;77.72;;
52872;Laerm;40124;52.198;9.902;2023-05-03T01:53:16;42.62;40.53;45.23;;
52872;Laerm;40124;52.198;9.902;2023-05-03T01:55:41;54.11;40.98;72.62;;
52872;Laerm;40124;52.198;9.902;2023-05-03T01:58:06;64.87;41.22;82.45;;
52872;Laerm;40124;52.198;9.902;2023-05-03T02:00:31;46.00;39.21;56.97;;
52872;Laerm;40124;52.198;9.902;2023-05-03T02:02:57;58.84;39.46;78.71;;
52872;Laerm;40124;52.198;9.902;2023-05-03T02:05:22;43.06;40.13;45.42;;
52872;Laerm;40124;52.198;9.902;2023-05-03T02:07:47;43.02;40.53;46.02;;
52872;Laerm;40124;52.198;9.902;2023-05-03T02:10:12;44.87;40.80;56.90;;
52872;Laerm;40124;52.198;9.902;2023-05-03T02:12:41;62.92;40.43;81.06;;
52872;Laerm;40124;52.198;9.902;2023-05-03T02:15:07;59.74;40.98;77.66;;
52872;Laerm;40124;52.198;9.902;2023-05-03T02:17:33;42.87;39.58;46.73;;
52872;Laerm;40124;52.198;9.902;2023-05-03T02:19:58;57.88;39.92;77.97;;
52872;Laerm;40124;52.198;9.902;2023-05-03T02:22:23;56.41;39.46;76.81;;
52872;Laerm;40124;52.198;9.902;2023-05-03T02:24:49;42.33;39.34;45.39;;
52872;Laerm;40124;52.198;9.902;2023-05-03T02:27:14;64.56;40.23;83.80;;
52872;Laerm;40124;52.198;9.902;2023-05-03T02:29:39;65.54;40.71;84.78;;
52872;Laerm;40124;52.198;9.902;2023-05-03T02:32:04;43.53;41.22;47.40;;
52872;Laerm;40124;52.198;9.902;2023-05-03T02:34:30;59.78;41.30;80.04;;
52872;Laerm;40124;52.198;9.902;2023-05-03T02:36:56;60.38;41.46;77.51;;
52872;Laerm;40124;52.198;9.902;2023-05-03T02:39:21;56.00;41.14;76.81;;
52872;Laerm;40124;52.198;9.902;2023-05-03T02:41:46;61.67;42.76;79.46;;
52872;Laerm;40124;52.198;9.902;2023-05-03T02:44:11;68.51;42.82;84.92;;
52872;Laerm;40124;52.198;9.902;2023-05-03T02:46:37;62.20;42.09;79.71;;
52872;Laerm;40124;52.198;9.902;2023-05-03T02:49:02;60.80;41.46;79.63;;
52872;Laerm;40124;52.198;9.902;2023-05-03T02:51:27;58.50;40.80;78.38;;
52872;Laerm;40124;52.198;9.902;2023-05-03T02:53:52;61.17;41.46;78.89;;
52872;Laerm;40124;52.198;9.902;2023-05-03T02:56:17;64.56;42.58;84.81;;
52872;Laerm;40124;52.198;9.902;2023-05-03T02:58:42;70.06;43.19;87.78;;
52872;Laerm;40124;52.198;9.902;2023-05-03T03:01:09;64.54;43.39;80.05;;
52872;Laerm;40124;52.198;9.902;2023-05-03T03:03:34;64.78;43.58;82.21;;
52872;Laerm;40124;52.198;9.902;2023-05-03T03:05:59;68.18;43.63;85.44;;
52872;Laerm;40124;52.198;9.902;2023-05-03T03:08:25;67.36;43.19;82.54;;
52872;Laerm;40124;52.198;9.902;2023-05-03T03:10:50;60.87;43.58;78.02;;
52872;Laerm;40124;52.198;9.902;2023-05-03T03:13:15;66.40;43.49;80.79;;
52872;Laerm;40124;52.198;9.902;2023-05-03T03:15:40;66.93;43.94;82.66;;
52872;Laerm;40124;52.198;9.902;2023-05-03T03:18:07;63.48;42.98;82.84;;
52872;Laerm;40124;52.198;9.902;2023-05-03T03:20:32;70.36;46.80;82.88;;
52872;Laerm;40124;52.198;9.902;2023-05-03T03:22:57;66.89;44.62;82.01;;
52872;Laerm;40124;52.198;9.902;2023-05-03T03:25:23;68.33;44.51;82.22;;
52872;Laerm;40124;52.198;9.902;2023-05-03T03:27:48;69.05;43.44;85.80;;
52872;Laerm;40124;52.198;9.902;2023-05-03T03:30:13;71.41;44.03;87.17;;
52872;Laerm;40124;52.198;9.902;2023-05-03T03:32:38;70.74;45.99;87.46;;
52872;Laerm;40124;52.198;9.902;2023-05-03T03:35:04;70.78;46.50;86.15;;
52872;Laerm;40124;52.198;9.902;2023-05-03T03:37:29;64.93;43.49;80.56;;
52872;Laerm;40124;52.198;9.902;2023-05-03T03:39:54;69.12;46.89;83.17;;
52872;Laerm;40124;52.198;9.902;2023-05-03T03:42:20;71.01;48.03;82.54;;
52872;Laerm;40124;52.198;9.902;2023-05-03T03:44:47;69.39;43.24;81.55;;
52872;Laerm;40124;52.198;9.902;2023-05-03T03:47:12;72.22;47.28;86.96;;
52872;Laerm;40124;52.198;9.902;2023-05-03T03:49:37;71.54;45.63;89.04;;
52872;Laerm;40124;52.198;9.902;2023-05-03T03:52:02;71.26;49.52;85.01;;
52872;Laerm;40124;52.198;9.902;2023-05-03T03:54:28;68.83;44.19;81.36;;
52872;Laerm;40124;52.198;9.902;2023-05-03T03:56:53;69.06;44.11;85.29;;
52872;Laerm;40124;52.198;9.902;2023-05-03T03:59:18;70.37;43.81;87.24;;
52872;Laerm;40124;52.198;9.902;2023-05-03T04:01:43;69.86;44.07;81.20;;
52872;Laerm;40124;52.198;9.902;2023-05-03T04:04:09;68.89;45.97;82.13;;
52872;Laerm;40124;52.198;9.902;2023-05-03T04:06:34;71.59;45.33;83.48;;
52872;Laerm;40124;52.198;9.902;2023-05-03T04:08:59;71.38;49.32;81.86;;
52872;Laerm;40124;52.198;9.902;2023-05-03T04:11:24;69.93;46.07;84.21;;
52872;Laerm;40124;52.198;9.902;2023-05-03T04:13:49;72.00;43.97;91.35;;
52872;Laerm;40124;52.198;9.902;2023-05-03T04:16:15;71.57;45.45;84.41;;
52872;Laerm;40124;52.198;9.902;2023-05-03T04:18:40;71.50;48.18;87.61;;
52872;Laerm;40124;52.198;9.902;2023-05-03T04:21:06;73.16;50.71;87.05;;
52872;Laerm;40124;52.198;9.902;2023-05-03T04:23:32;73.56;50.98;88.14;;
52872;Laerm;40124;52.198;9.902;2023-05-03T04:25:57;71.29;46.57;84.85;;
52872;Laerm;40124;52.198;9.902;2023-05-03T04:28:22;72.36;47.26;88.25;;
52872;Laerm;40124;52.198;9.902;2023-05-03T04:30:48;75.81;44.90;91.73;;
52872;Laerm;40124;52.198;9.902;2023-05-03T04:33:14;71.90;47.18;85.39;;
52872;Laerm;40124;52.198;9.902;2023-05-03T04:35:40;70.01;46.95;82.11;;
52872;Laerm;40124;52.198;9.902;2023-05-03T04:38:05;71.91;48.45;82.70;;
52872;Laerm;40124;52.198;9.902;2023-05-03T04:40:30;71.17;48.58;83.30;;
52872;Laerm;40124;52.198;9.902;2023-05-03T04:42:56;72.16;50.42;83.62;;
52872;Laerm;40124;52.198;9.902;2023-05-03T04:45:21;70.16;46.80;82.06;;
52872;Laerm;40124;52.198;9.902;2023-05-03T04:47:47;72.08;53.25;81.93;;
52872;Laerm;40124;52.198;9.902;2023-05-03T04:50:12;76.33;51.53;91.76;;
52872;Laerm;40124;52.198;9.902;2023-05-03T04:52:37;70.82;51.70;80.31;;
52872;Laerm;40124;52.198;9.902;2023-05-03T04:55:02;73.31;53.60;86.10;;
52872;Laerm;40124;52.198;9.902;2023-05-03T04:57:29;72.44;53.85;82.68;;
52872;Laerm;40124;52.198;9.902;2023-05-03T04:59:56;75.11;56.95;89.07;;
52872;Laerm;40124;52.198;9.902;2023-05-03T05:02:21;72.89;49.82;87.15;;
52872;Laerm;40124;52.198;9.902;2023-05-03T05:04:46;71.10;44.83;82.70;;
52872;Laerm;40124;52.198;9.902;2023-05-03T05:07:12;73.70;46.55;87.21;;
52872;Laerm;40124;52.198;9.902;2023-05-03T05:09:37;70.80;48.73;82.43;;
52872;Laerm;40124;52.198;9.902;2023-05-03T05:12:02;71.47;49.50;83.41;;
52872;Laerm;40124;52.198;9.902;2023-05-03T05:14:28;73.27;47.83;86.34;;
52872;Laerm;40124;52.198;9.902;2023-05-03T05:16:54;72.50;54.47;84.88;;
52872;Laerm;40124;52.198;9.902;2023-05-03T05:19:19;74.13;52.96;87.38;;
52872;Laerm;40124;52.198;9.902;2023-05-03T05:21:44;73.76;58.30;87.09;;
52872;Laerm;40124;52.198;9.902;2023-05-03T05:24:09;74.29;53.60;87.77;;
52872;Laerm;40124;52.198;9.902;2023-05-03T05:26:35;73.18;49.94;85.22;;
52872;Laerm;40124;52.198;9.902;2023-05-03T05:29:00;74.03;51.53;88.20;;
52872;Laerm;40124;52.198;9.902;2023-05-03T05:31:25;72.20;53.84;81.57;;
52872;Laerm;40124;52.198;9.902;2023-05-03T05:33:50;72.82;49.32;88.50;;
52872;Laerm;40124;52.198;9.902;2023-05-03T05:36:16;72.52;53.22;85.84;;
52872;Laerm;40124;52.198;9.902;2023-05-03T05:38:41;71.59;48.29;82.39;;
52872;Laerm;40124;52.198;9.902;2023-05-03T05:41:06;73.55;52.31;85.65;;
52872;Laerm;40124;52.198;9.902;2023-05-03T05:43:32;73.80;54.51;87.82;;
52872;Laerm;40124;52.198;9.902;2023-05-03T05:45:57;72.51;53.19;81.14;;
52872;Laerm;40124;52.198;9.902;2023-05-03T05:48:22;72.32;51.11;84.43;;
52872;Laerm;40124;52.198;9.902;2023-05-03T05:50:47;71.93;49.40;81.77;;
52872;Laerm;40124;52.198;9.902;2023-05-03T05:53:12;75.52;47.52;92.78;;
52872;Laerm;40124;52.198;9.902;2023-05-03T05:55:38;73.86;57.86;84.41;;
52872;Laerm;40124;52.198;9.902;2023-05-03T05:58:03;72.62;52.51;85.82;;
52872;Laerm;40124;52.198;9.902;2023-05-03T06:00:28;72.84;51.95;86.91;;
52872;Laerm;40124;52.198;9.902;2023-05-03T06:02:57;72.26;49.03;85.32;;
52872;Laerm;40124;52.198;9.902;2023-05-03T06:05:22;71.20;46.33;86.38;;
52872;Laerm;40124;52.198;9.902;2023-05-03T06:07:48;74.23;57.95;89.29;;
52872;Laerm;40124;52.198;9.902;2023-05-03T06:10:13;71.06;50.47;80.92;;
52872;Laerm;40124;52.198;9.902;2023-05-03T06:12:38;71.15;49.32;80.88;;
52872;Laerm;40124;52.198;9.902;2023-05-03T06:15:04;71.49;45.14;86.09;;
52872;Laerm;40124;52.198;9.902;2023-05-03T06:17:29;72.88;54.90;86.54;;
52872;Laerm;40124;52.198;9.902;2023-05-03T06:19:54;71.85;48.66;86.43;;
52872;Laerm;40124;52.198;9.902;2023-05-03T06:22:20;71.77;44.76;84.19;;
52872;Laerm;40124;52.198;9.902;2023-05-03T06:24:45;70.91;47.34;84.56;;
52872;Laerm;40124;52.198;9.902;2023-05-03T06:27:10;73.44;46.20;88.58;;
52872;Laerm;40124;52.198;9.902;2023-05-03T06:29:35;72.70;47.83;87.11;;
52872;Laerm;40124;52.198;9.902;2023-05-03T06:32:00;67.58;44.62;81.23;;
52872;Laerm;40124;52.198;9.902;2023-05-03T06:34:25;72.28;44.62;87.66;;
52872;Laerm;40124;52.198;9.902;2023-05-03T06:36:51;72.29;51.07;87.66;;
52872;Laerm;40124;52.198;9.902;2023-05-03T06:39:16;72.84;45.14;87.98;;
52872;Laerm;40124;52.198;9.902;2023-05-03T06:41:42;71.66;44.54;87.22;;
52872;Laerm;40124;52.198;9.902;2023-05-03T06:44:07;71.64;46.82;86.32;;
52872;Laerm;40124;52.198;9.902;2023-05-03T06:46:32;69.49;45.23;81.75;;
52872;Laerm;40124;52.198;9.902;2023-05-03T06:48:58;74.77;46.30;88.15;;
52872;Laerm;40124;52.198;9.902;2023-05-03T06:51:23;71.40;43.49;87.50;;
52872;Laerm;40124;52.198;9.902;2023-05-03T06:53:52;72.66;54.45;91.99;;
52872;Laerm;40124;52.198;9.902;2023-05-03T06:56:17;70.63;48.23;84.47;;
52872;Laerm;40124;52.198;9.902;2023-05-03T06:58:43;69.67;47.96;81.16;;
52872;Laerm;40124;52.198;9.902;2023-05-03T07:01:08;69.82;41.89;85.60;;
52872;Laerm;40124;52.198;9.902;2023-05-03T07:03:33;71.25;52.68;86.45;;
52872;Laerm;40124;52.198;9.902;2023-05-03T07:05:58;70.28;48.26;86.93;;
52872;Laerm;40124;52.198;9.902;2023-05-03T07:08:23;74.11;53.16;92.63;;
52872;Laerm;40124;52.198;9.902;2023-05-03T07:10:48;76.09;50.71;101.26;;
52872;Laerm;40124;52.198;9.902;2023-05-03T07:13:13;71.14;44.76;88.31;;
52872;Laerm;40124;52.198;9.902;2023-05-03T07:15:39;69.20;45.45;81.01;;
52872;Laerm;40124;52.198;9.902;2023-05-03T07:18:04;70.50;47.72;85.20;;
52872;Laerm;40124;52.198;9.902;2023-05-03T07:20:30;71.22;47.74;86.16;;
52872;Laerm;40124;52.198;9.902;2023-05-03T07:22:55;70.66;47.40;86.04;;
52872;Laerm;40124;52.198;9.902;2023-05-03T07:25:20;70.12;47.90;83.41;;
52872;Laerm;40124;52.198;9.902;2023-05-03T07:27:45;69.82;45.33;86.93;;
52872;Laerm;40124;52.198;9.902;2023-05-03T07:30:10;68.39;45.89;80.95;;
52872;Laerm;40124;52.198;9.902;2023-05-03T07:32:35;71.42;46.87;86.42;;
52872;Laerm;40124;52.198;9.902;2023-05-03T07:35:01;72.35;45.11;86.89;;
52872;Laerm;40124;52.198;9.902;2023-05-03T07:37:27;69.30;43.09;81.27;;
52872;Laerm;40124;52.198;9.902;2023-05-03T07:39:52;71.91;43.90;89.48;;
52872;Laerm;40124;52.198;9.902;2023-05-03T07:42:17;68.28;43.39;82.08;;
52872;Laerm;40124;52.198;9.902;2023-05-03T07:44:42;70.91;47.55;87.21;;
52872;Laerm;40124;52.198;9.902;2023-05-03T07:47:08;71.23;48.81;83.68;;
52872;Laerm;40124;52.198;9.902;2023-05-03T07:49:33;69.82;47.08;83.46;;
52872;Laerm;40124;52.198;9.902;2023-05-03T07:52:00;67.83;43.44;81.24;;
52872;Laerm;40124;52.198;9.902;2023-05-03T07:54:25;69.11;47.24;85.58;;
52872;Laerm;40124;52.198;9.902;2023-05-03T07:56:50;71.30;45.04;91.28;;
52872;Laerm;40124;52.198;9.902;2023-05-03T07:59:15;67.36;44.43;79.10;;
52872;Laerm;40124;52.198;9.902;2023-05-03T08:01:41;70.69;49.60;85.46;;
52872;Laerm;40124;52.198;9.902;2023-05-03T08:04:06;70.32;44.31;87.30;;
52872;Laerm;40124;52.198;9.902;2023-05-03T08:06:31;67.80;43.54;85.15;;
52872;Laerm;40124;52.198;9.902;2023-05-03T08:08:56;71.77;45.11;88.07;;
52872;Laerm;40124;52.198;9.902;2023-05-03T08:11:22;68.86;43.14;83.05;;
52872;Laerm;40124;52.198;9.902;2023-05-03T08:13:47;67.68;44.69;82.94;;
52872;Laerm;40124;52.198;9.902;2023-05-03T08:16:12;71.25;47.44;88.91;;
52872;Laerm;40124;52.198;9.902;2023-05-03T08:18:37;68.14;45.30;84.48;;
52872;Laerm;40124;52.198;9.902;2023-05-03T08:21:02;70.76;45.66;83.80;;
52872;Laerm;40124;52.198;9.902;2023-05-03T08:23:27;71.66;49.12;88.62;;
52872;Laerm;40124;52.198;9.902;2023-05-03T08:25:53;69.58;44.73;83.56;;
52872;Laerm;40124;52.198;9.902;2023-05-03T08:28:18;70.79;47.34;87.76;;
52872;Laerm;40124;52.198;9.902;2023-05-03T08:30:43;68.90;45.20;83.75;;
52872;Laerm;40124;52.198;9.902;2023-05-03T08:33:09;64.74;43.14;80.06;;
52872;Laerm;40124;52.198;9.902;2023-05-03T08:35:35;68.07;43.77;89.64;;
52872;Laerm;40124;52.198;9.902;2023-05-03T08:38:00;68.58;44.07;80.72;;
52872;Laerm;40124;52.198;9.902;2023-05-03T08:40:25;70.02;43.29;83.65;;
52872;Laerm;40124;52.198;9.902;2023-05-03T08:42:50;69.82;43.09;82.51;;
52872;Laerm;40124;52.198;9.902;2023-05-03T08:45:17;71.91;51.79;85.17;;
52872;Laerm;40124;52.198;9.902;2023-05-03T08:47:42;66.96;44.73;80.38;;
52872;Laerm;40124;52.198;9.902;2023-05-03T08:50:11;68.89;44.54;86.21;;
52872;Laerm;40124;52.198;9.902;2023-05-03T08:52:40;70.26;51.64;83.15;;
52872;Laerm;40124;52.198;9.902;2023-05-03T08:55:06;67.94;48.83;81.52;;
52872;Laerm;40124;52.198;9.902;2023-05-03T08:57:32;67.78;43.90;81.48;;
52872;Laerm;40124;52.198;9.902;2023-05-03T08:59:57;68.07;45.91;81.13;;
52872;Laerm;40124;52.198;9.902;2023-05-03T09:02:25;69.16;48.88;84.16;;
52872;Laerm;40124;52.198;9.902;2023-05-03T09:04:51;67.10;46.87;79.11;;
52872;Laerm;40124;52.198;9.902;2023-05-03T09:07:16;68.17;45.39;83.67;;
52872;Laerm;40124;52.198;9.902;2023-05-03T09:09:41;68.36;43.72;83.23;;
52872;Laerm;40124;52.198;9.902;2023-05-03T09:12:07;66.87;42.93;80.90;;
52872;Laerm;40124;52.198;9.902;2023-05-03T09:14:42;68.27;44.39;84.58;;
52872;Laerm;40124;52.198;9.902;2023-05-03T09:17:15;71.01;43.58;91.93;;
52872;Laerm;40124;52.198;9.902;2023-05-03T09:19:51;69.47;46.50;85.11;;
52872;Laerm;40124;52.198;9.902;2023-05-03T09:22:16;67.42;45.51;80.22;;
52872;Laerm;40124;52.198;9.902;2023-05-03T09:24:49;68.51;46.57;85.02;;
52872;Laerm;40124;52.198;9.902;2023-05-03T09:27:16;69.50;46.84;82.51;;
52872;Laerm;40124;52.198;9.902;2023-05-03T09:29:41;71.59;47.04;88.00;;
52872;Laerm;40124;52.198;9.902;2023-05-03T09:32:07;69.65;47.70;83.58;;
52872;Laerm;40124;52.198;9.902;2023-05-03T09:34:33;69.51;47.41;83.87;;
52872;Laerm;40124;52.198;9.902;2023-05-03T09:36:58;73.28;48.83;90.43;;
52872;Laerm;40124;52.198;9.902;2023-05-03T09:39:23;68.24;47.34;83.55;;
52872;Laerm;40124;52.198;9.902;2023-05-03T09:41:49;66.70;45.63;79.09;;
52872;Laerm;40124;52.198;9.902;2023-05-03T09:44:15;67.94;46.95;81.81;;
52872;Laerm;40124;52.198;9.902;2023-05-03T09:47:00;66.12;47.36;81.13;;
52872;Laerm;40124;52.198;9.902;2023-05-03T09:49:25;67.38;43.68;81.14;;
52872;Laerm;40124;52.198;9.902;2023-05-03T09:51:50;69.23;44.11;85.71;;
52872;Laerm;40124;52.198;9.902;2023-05-03T09:54:15;67.85;44.51;80.80;;
52872;Laerm;40124;52.198;9.902;2023-05-03T09:56:41;69.87;44.73;80.98;;
52872;Laerm;40124;52.198;9.902;2023-05-03T09:59:06;70.06;42.59;84.28;;
52872;Laerm;40124;52.198;9.902;2023-05-03T10:01:34;68.62;45.57;77.89;;
52872;Laerm;40124;52.198;9.902;2023-05-03T10:04:00;68.45;43.58;79.21;;
52872;Laerm;40124;52.198;9.902;2023-05-03T10:06:35;72.18;58.03;86.67;;
52872;Laerm;40124;52.198;9.902;2023-05-03T10:09:02;70.90;58.25;83.05;;
52872;Laerm;40124;52.198;9.902;2023-05-03T10:11:29;70.54;48.71;83.46;;
52872;Laerm;40124;52.198;9.902;2023-05-03T10:13:57;71.16;44.58;85.70;;
52872;Laerm;40124;52.198;9.902;2023-05-03T10:16:24;68.63;50.15;79.46;;
52872;Laerm;40124;52.198;9.902;2023-05-03T10:18:52;69.03;44.47;81.46;;
52872;Laerm;40124;52.198;9.902;2023-05-03T10:21:22;68.33;42.58;82.03;;
52872;Laerm;40124;52.198;9.902;2023-05-03T10:26:32;71.40;46.15;86.91;;
52872;Laerm;40124;52.198;9.902;2023-05-03T10:28:58;75.62;47.08;93.18;;
52872;Laerm;40124;52.198;9.902;2023-05-03T10:31:56;71.88;44.15;85.15;;
52872;Laerm;40124;52.198;9.902;2023-05-03T10:34:18;70.95;43.68;90.53;;
52872;Laerm;40124;52.198;9.902;2023-05-03T10:36:45;72.30;43.94;85.67;;
52872;Laerm;40124;52.198;9.902;2023-05-03T10:39:12;71.60;51.39;82.48;;
52872;Laerm;40124;52.198;9.902;2023-05-03T10:41:38;70.23;44.87;81.33;;
52872;Laerm;40124;52.198;9.902;2023-05-03T10:44:03;72.49;46.07;89.98;;
52872;Laerm;40124;52.198;9.902;2023-05-03T10:46:29;72.69;48.20;87.79;;
52872;Laerm;40124;52.198;9.902;2023-05-03T10:49:13;72.64;45.77;86.81;;
52872;Laerm;40124;52.198;9.902;2023-05-03T10:51:39;70.77;47.93;81.38;;
52872;Laerm;40124;52.198;9.902;2023-05-03T10:54:07;72.74;45.14;88.35;;
52872;Laerm;40124;52.198;9.902;2023-05-03T10:56:33;71.78;40.71;86.65;;
52872;Laerm;40124;52.198;9.902;2023-05-03T10:59:10;72.19;46.80;86.94;;
52872;Laerm;40124;52.198;9.902;2023-05-03T11:01:36;71.02;44.15;84.07;;
52872;Laerm;40124;52.198;9.902;2023-05-03T11:06:45;69.98;44.15;80.66;;
52872;Laerm;40124;52.198;9.902;2023-05-03T11:09:13;69.65;44.19;80.66;;
52872;Laerm;40124;52.198;9.902;2023-05-03T11:11:39;73.78;52.53;87.39;;
52872;Laerm;40124;52.198;9.902;2023-05-03T11:14:04;68.25;47.76;79.50;;
52872;Laerm;40124;52.198;9.902;2023-05-03T11:16:30;70.65;52.89;81.69;;
52872;Laerm;40124;52.198;9.902;2023-05-03T11:18:55;73.41;46.15;86.03;;
52872;Laerm;40124;52.198;9.902;2023-05-03T11:21:20;71.49;45.01;88.01;;
52872;Laerm;40124;52.198;9.902;2023-05-03T11:23:46;69.29;44.80;79.53;;
52872;Laerm;40124;52.198;9.902;2023-05-03T11:26:11;72.83;45.17;87.39;;
52872;Laerm;40124;52.198;9.902;2023-05-03T11:28:40;71.76;48.26;84.07;;
52872;Laerm;40124;52.198;9.902;2023-05-03T11:31:06;71.88;49.27;86.44;;
52872;Laerm;40124;52.198;9.902;2023-05-03T11:33:32;75.78;54.17;92.37;;
52872;Laerm;40124;52.198;9.902;2023-05-03T11:36:00;71.46;50.26;86.32;;
52872;Laerm;40124;52.198;9.902;2023-05-03T11:38:25;70.82;45.27;86.27;;
52872;Laerm;40124;52.198;9.902;2023-05-03T11:40:50;69.51;43.77;83.17;;
52872;Laerm;40124;52.198;9.902;2023-05-03T11:43:16;72.87;46.07;87.44;;
52872;Laerm;40124;52.198;9.902;2023-05-03T11:45:41;70.56;43.63;81.94;;
52872;Laerm;40124;52.198;9.902;2023-05-03T11:48:08;72.21;42.47;90.41;;
52872;Laerm;40124;52.198;9.902;2023-05-03T11:53:09;72.08;44.62;86.09;;
52872;Laerm;40124;52.198;9.902;2023-05-03T11:55:37;69.21;44.19;85.54;;
52872;Laerm;40124;52.198;9.902;2023-05-03T11:58:02;74.12;44.27;89.42;;
52872;Laerm;40124;52.198;9.902;2023-05-03T12:00:27;72.38;45.75;87.05;;
52872;Laerm;40124;52.198;9.902;2023-05-03T12:02:53;70.65;44.49;88.38;;
52872;Laerm;40124;52.198;9.902;2023-05-03T12:05:23;70.28;43.44;86.22;;
52872;Laerm;40124;52.198;9.902;2023-05-03T12:07:48;70.51;48.15;80.47;;
52872;Laerm;40124;52.198;9.902;2023-05-03T12:10:14;68.54;44.97;81.38;;
52872;Laerm;40124;52.198;9.902;2023-05-03T12:12:50;71.28;42.98;84.59;;
52872;Laerm;40124;52.198;9.902;2023-05-03T12:15:15;71.97;52.45;86.20;;
52872;Laerm;40124;52.198;9.902;2023-05-03T12:17:54;73.50;52.09;90.66;;
52872;Laerm;40124;52.198;9.902;2023-05-03T12:20:20;73.07;46.13;87.94;;
52872;Laerm;40124;52.198;9.902;2023-05-03T12:22:53;71.94;46.69;89.48;;
52872;Laerm;40124;52.198;9.902;2023-05-03T12:25:19;74.04;45.91;90.28;;
52872;Laerm;40124;52.198;9.902;2023-05-03T12:27:45;71.28;49.49;86.02;;
52872;Laerm;40124;52.198;9.902;2023-05-03T12:30:10;75.24;50.43;91.47;;
52872;Laerm;40124;52.198;9.902;2023-05-03T12:32:36;71.48;49.63;81.30;;
52872;Laerm;40124;52.198;9.902;2023-05-03T12:35:02;70.63;43.04;85.13;;
52872;Laerm;40124;52.198;9.902;2023-05-03T12:37:28;69.01;45.17;85.92;;
52872;Laerm;40124;52.198;9.902;2023-05-03T12:39:53;75.20;44.97;92.26;;
52872;Laerm;40124;52.198;9.902;2023-05-03T12:42:18;72.06;45.89;86.87;;
52872;Laerm;40124;52.198;9.902;2023-05-03T12:44:43;72.15;46.69;83.68;;
52872;Laerm;40124;52.198;9.902;2023-05-03T12:47:08;70.92;41.06;85.21;;
52872;Laerm;40124;52.198;9.902;2023-05-03T12:49:34;71.70;60.28;82.86;;
52872;Laerm;40124;52.198;9.902;2023-05-03T12:51:59;70.47;58.12;79.79;;
52872;Laerm;40124;52.198;9.902;2023-05-03T12:54:24;76.88;63.93;89.94;;
52872;Laerm;40124;52.198;9.902;2023-05-03T12:56:50;73.39;50.16;87.24;;
52872;Laerm;40124;52.198;9.902;2023-05-03T12:59:15;73.92;58.48;82.29;;
52872;Laerm;40124;52.198;9.902;2023-05-03T13:01:40;74.20;63.56;83.78;;
52872;Laerm;40124;52.198;9.902;2023-05-03T13:04:06;73.06;63.45;82.21;;
52872;Laerm;40124;52.198;9.902;2023-05-03T13:06:31;73.68;64.83;87.23;;
52872;Laerm;40124;52.198;9.902;2023-05-03T13:08:57;72.14;55.89;81.56;;
52872;Laerm;40124;52.198;9.902;2023-05-03T13:11:23;73.08;53.47;85.58;;
52872;Laerm;40124;52.198;9.902;2023-05-03T13:13:50;73.96;48.36;87.52;;
52872;Laerm;40124;52.198;9.902;2023-05-03T13:16:15;73.37;51.03;88.70;;
52872;Laerm;40124;52.198;9.902;2023-05-03T13:18:41;70.50;45.83;80.36;;
52872;Laerm;40124;52.198;9.902;2023-05-03T13:21:06;75.85;54.33;90.56;;
52872;Laerm;40124;52.198;9.902;2023-05-03T13:23:32;70.64;47.93;80.68;;
52872;Laerm;40124;52.198;9.902;2023-05-03T13:25:57;70.56;47.81;80.77;;
52872;Laerm;40124;52.198;9.902;2023-05-03T13:28:23;69.59;44.27;80.37;;
52872;Laerm;40124;52.198;9.902;2023-05-03T13:30:48;74.39;52.07;91.26;;
52872;Laerm;40124;52.198;9.902;2023-05-03T13:33:14;71.37;46.07;79.78;;
52872;Laerm;40124;52.198;9.902;2023-05-03T13:35:39;71.75;52.93;82.24;;
52872;Laerm;40124;52.198;9.902;2023-05-03T13:38:04;70.03;52.17;79.43;;
52872;Laerm;40124;52.198;9.902;2023-05-03T13:40:29;70.28;47.90;85.01;;
52872;Laerm;40124;52.198;9.902;2023-05-03T13:42:54;73.97;49.80;87.01;;
52872;Laerm;40124;52.198;9.902;2023-05-03T13:45:19;71.02;49.07;81.28;;
52872;Laerm;40124;52.198;9.902;2023-05-03T13:47:45;70.70;48.49;82.36;;
52872;Laerm;40124;52.198;9.902;2023-05-03T13:50:10;70.96;44.31;84.28;;